Holland Patent, NY

4:14 AM EDT on June 02, 2015 (GMT -0400)
This'll Do Farm | | Change Station
CLOSE
Current Station
Personal Weather Station
Location: Holland Patent, NY
Elevation: 830 ft
Nearby Weather Stations

Elev 830 ft 43.21 °N, 75.22 °W | Updated 1 minute ago

Overcast
Overcast
47.3 °F
Feels Like 47 °F
N
0.0
Wind Variable Wind from SE
Gusts 7.0 mph

Today
High -- | Low -- °F
--% Chance of Precip.
Yesterday
High -- | Low -- °F
Precip. -- in
5:23 AM 8:34 PM
Full, 100% visible
Pressure 30.16 in
Visibility 8.0 miles
Clouds Scattered Clouds 600 ft
Mostly Cloudy 1100 ft
Overcast 2000 ft
Windchill 47 °F
Dew Point 46 °F
Humidity 96%
Rainfall 0.02 in
Snow Depth Not available.
UV 0 out of 12
Pollen .90 out of 12
Air Quality Not available.
Flu Activity Sporadic
METAR KRME 020753Z AUTO 10005KT 8SM SCT006 BKN011 OVC020 09/09 A3015 RMK AO2 RAB05E25 SLP211 P0000 T00940089

More Conditions Fewer Conditions

Pressure 30.16 in
Visibility 8.0 miles
Clouds Scattered Clouds 600 ft
Mostly Cloudy 1100 ft
Overcast 2000 ft
Windchill 47 °F
Dew Point 46 °F
Humidity 96%
Rainfall 0.02 in
Snow Depth Not available.
UV 0 out of 12
Pollen .90 out of 12
Air Quality Not available.
Flu Activity Sporadic
METAR KRME 020753Z AUTO 10005KT 8SM SCT006 BKN011 OVC020 09/09 A3015 RMK AO2 RAB05E25 SLP211 P0000 T00940089

More Conditions Fewer Conditions

10-Day Weather Forecast

Almanac

Astronomy

Jun. 02, 2015 Rise Set
Actual Time
Civil Twilight
Nautical Twilight
Astronomical Twilight
Moon
Length of Visible Light
Length of Day
Tomorrow will be .
, % of the Moon is Illuminated

Today's Extremes

State Highs State Lows

Community

WunderPhotos

Upload Photos

1,825,895 photos uploaded!

WunderBlogs® & News

Nearby

Air Quality

  Air Quality AQ Index Pollutant
Not available.

Snow Depth

Station Depth Elevation

Earthquake Activity

City Distance Mag. Time & Date
Minimum magnitude displayed is 2.5.

Coastal Water Temperatures

Place Temperature

Stations

Nearby Weather Stations

Station Location Temp. Windchill Dew Point Humidity Wind Precip. Elev Updated Type